< Cyclone 197111 1971 Season Cyclone 197113 >
Cyclone 197112 (DORA)
General InformationTrack Information on Google Maps || ResourceGoogle EarthGE AnimationAtom FeedGeoJSON
Detalied Best Track (Time Zone = UTC)
Year Month Day Hour Lat. Long. Pressure (hPa) Wind (kt) Class Image Chart
1971 2 10 11 -19.4 152.7 1001 0 0 -- --
1971 2 10 20 -20.2 153.0 1000 0 0 -- --
1971 2 10 23 -20.4 153.5 998 0 0 -- --
1971 2 11 11 -21.0 155.6 990 0 0 -- --
1971 2 11 23 -22.7 158.4 993 0 0 -- --
1971 2 12 05 -23.9 159.2 993 0 0 -- --
1971 2 12 11 -24.6 159.2 994 0 0 -- --
1971 2 12 20 -25.2 159.2 994 0 0 -- --
1971 2 12 23 -25.5 159.4 995 0 0 -- --
1971 2 13 11 -26.6 161.1 996 0 0 -- --
1971 2 13 14 -26.9 161.4 994 0 0 -- --
1971 2 13 23 -27.4 161.6 998 0 0 -- --
1971 2 14 05 -27.6 161.4 998 0 0 -- --
1971 2 14 11 -27.5 161.2 998 0 0 -- --
1971 2 14 23 -27.3 160.6 997 0 0 -- --
1971 2 15 11 -27.0 159.8 999 0 0 -- --
1971 2 15 23 -27.3 158.9 998 0 0 -- --
1971 2 16 11 -27.7 157.5 998 0 0 -- --
1971 2 16 14 -27.7 157.0 997 0 0 -- --
1971 2 16 18 -27.9 156.3 996 0 0 -- --
1971 2 16 23 -27.9 155.5 996 0 0 -- --
1971 2 17 00 -27.9 155.3 995 0 0 -- --
1971 2 17 09 -26.9 153.2 993 0 0 -- --
1971 2 17 11 -26.5 152.7 996 0 0 -- --
1971 2 17 17 -25.6 151.9 1002 0 0 -- --
< Cyclone 197111 1971 Season Cyclone 197113 >

Help